Flight Track Log - Related Links

Times and Time Zones

All times are in EDT time to prevent confusion due to time zone crossing. See the UAL4431 flight status page for this flight to view local times or setup timezone preferences in your user account.


Time Position Orientation Groundspeed Altitude Reporting Facility
EDT Latitude Longitude Course Direction KTS MPH feet Rate Location/Type
Wed 06:42:15 PM 41.4214 -81.8375 355° North 173 199 1,900  Level Cleveland Center
Wed 06:43:10 PM 41.4797 -81.8442 355° North 264 304 3,500 2,167 Climbing Cleveland Center
Wed 06:44:03 PM 41.5422 -81.8564 352° North 262 302 5,800 2,761 Climbing Cleveland Center
Wed 06:45:03 PM 41.5433 -81.9397 271° West 220 253 8,700 2,750 Climbing Cleveland Center
Wed 06:46:03 PM 41.5175 -82.0058 242° Southwest 242 278 11,300 2,300 Climbing Cleveland Center
Wed 06:47:03 PM 41.4831 -82.0881 241° Southwest 254 292 13,300 2,000 Climbing Cleveland Center
Wed 06:48:03 PM 41.4464 -82.1814 242° Southwest 268 308 15,300 1,750 Climbing Cleveland Center
Wed 06:49:03 PM 41.4056 -82.2775 240° Southwest 286 329 16,800 950 Climbing Cleveland Center
Wed 06:50:03 PM 41.3600 -82.3897 242° Southwest 326 375 17,200 1,050 Climbing Cleveland Center
Wed 06:51:03 PM 41.3142 -82.5072 243° Southwest 356 410 18,900 1,664 Climbing Cleveland Center
Wed 06:52:02 PM 41.2889 -82.6475 257° West 362 417 20,500 2,150 Climbing Cleveland Center
Wed 06:53:03 PM 41.2742 -82.7686 261° West 353 406 23,200 2,430 Climbing Cleveland Center
Wed 06:54:03 PM 41.2572 -82.8867 259° West 334 384 25,400 2,168 Climbing Cleveland Center
Wed 06:55:02 PM 41.2569 -82.9917 270° West 311 358 27,500 1,950 Climbing Cleveland Center
Wed 06:56:03 PM 41.3117 -83.0767 311° West 284 327 29,300 1,240 Climbing Cleveland Center
Wed 06:57:03 PM 41.3725 -83.1511 317° Northwest 284 327 30,000 807 Climbing Cleveland Center
Wed 06:58:02 PM 41.4353 -83.2311 316° Northwest 305 351 30,900 958 Climbing Cleveland Center
Wed 06:59:02 PM 41.4850 -83.3356 302° West 316 364 31,900 550 Climbing Cleveland Center
Wed 07:00:02 PM 41.5278 -83.4539 296° West 334 384 32,000 50 Climbing Cleveland Center
Wed 07:01:03 PM 41.5725 -83.5808 295° West 355 409 32,000  Level Cleveland Center
Wed 07:02:02 PM 41.6131 -83.6994 295° West 376 433 32,000  Level Cleveland Center
Wed 07:03:02 PM 41.6636 -83.8325 297° West 396 456 32,000  Level Cleveland Center
Wed 07:04:03 PM 41.7119 -83.9658 296° West 396 456 32,000  Level Cleveland Center
Wed 07:05:03 PM 41.7558 -84.1017 293° West 396 456 32,000  Level Cleveland Center
Wed 07:07:05 PM 41.8547 -84.3756 296° West 399 459 32,000  Level Chicago Center
Wed 07:08:06 PM 41.9028 -84.5094 296° West 400 460 32,000  Level Chicago Center
Wed 07:09:07 PM 41.9489 -84.6464 294° West 403 464 32,000  Level Chicago Center
Wed 07:10:08 PM 41.9972 -84.7900 294° West 404 465 32,000  Level Chicago Center
Wed 07:11:09 PM 42.0436 -84.9303 294° West 408 470 32,000  Level Chicago Center
Wed 07:12:11 PM 42.0903 -85.0686 294° West 409 471 32,000  Level Chicago Center
Wed 07:13:12 PM 42.1500 -85.1961 302° West 410 472 32,000  Level Chicago Center
Wed 07:14:13 PM 42.2144 -85.3189 305° West 404 465 32,000  Level Chicago Center
Wed 07:15:14 PM 42.2903 -85.4664 305° West 400 460 32,000  Level Chicago Center
Wed 07:16:15 PM 42.3536 -85.5889 305° West 398 458 32,000  Level Chicago Center
Wed 07:17:16 PM 42.4067 -85.7103 301° West 382 440 32,000  Level Chicago Center
Wed 07:18:17 PM 42.4447 -85.8486 290° West 389 448 32,000 -341 Level Chicago Center
Wed 07:19:19 PM 42.4853 -85.9872 292° West 394 453 31,300 -829 Descending Chicago Center
Wed 07:20:20 PM 42.5267 -86.1300 292° West 402 463 30,300 -639 Descending Chicago Center
Wed 07:21:21 PM 42.5672 -86.2761 291° West 410 472 30,000 -148 Descending Chicago Center
Wed 07:22:22 PM 42.6089 -86.4219 291° West 412 474 30,000  Level Chicago Center
Wed 07:23:24 PM 42.6506 -86.5703 291° West 417 480 30,000  Level Chicago Center
Wed 07:24:25 PM 42.6917 -86.7186 291° West 417 480 30,000  Level Chicago Center
Wed 07:25:26 PM 42.7344 -86.8681 291° West 424 488 30,000  Level Chicago Center
Wed 07:26:27 PM 42.7747 -87.0178 290° West 423 487 30,000  Level Chicago Center
Wed 07:27:29 PM 42.8150 -87.1689 290° West 423 487 30,000 -341 Level Chicago Center
Wed 07:28:30 PM 42.8650 -87.3497 291° West 425 489 29,300 -1,033 Descending Chicago Center
Wed 07:29:31 PM 42.8875 -87.5011 282° West 408 470 27,900 -1,672 Descending Chicago Center
Wed 07:30:32 PM 42.9094 -87.6567 281° West 414 476 25,900 -1,902 Descending Chicago Center
Wed 07:31:34 PM 42.9314 -87.8128 281° West 417 480 24,000 -2,146 Descending Chicago Center
Wed 07:32:35 PM 42.9528 -87.9603 281° West 399 459 21,500 -2,508 Descending Chicago Center
Wed 07:33:36 PM 42.9722 -88.1000 281° West 376 433 18,900 -2,410 Descending Chicago Center
Wed 07:34:37 PM 42.9914 -88.2389 281° West 371 427 16,600 -2,066 Descending Chicago Center
Wed 07:35:38 PM 43.0094 -88.3697 281° West 352 405 14,700 -1,220 Descending Chicago Center
Wed 07:36:40 PM 43.0250 -88.4781 281° West 293 337 14,100 -341 Descending Chicago Center
Wed 07:37:41 PM 43.0389 -88.5803 281° West 275 316 14,000 -148 Descending Chicago Center
Wed 07:38:42 PM 43.0536 -88.6881 281° West 283 326 13,800 -1,475 Descending Chicago Center
Wed 07:39:43 PM 43.0706 -88.8103 281° West 279 321 11,000 -2,293 Descending Chicago Center
Wed 07:40:45 PM 43.0833 -88.9119 280° West 271 312 9,100 -2,000 Descending Chicago Center
Wed 07:41:46 PM 43.0886 -89.0022 275° West 244 281 6,900 -1,525 Descending Chicago Center
Wed 07:42:47 PM 43.1100 -89.0814 290° West 248 285 6,000 -492 Descending Chicago Center
Wed 07:43:48 PM 43.1800 -89.1081 344° North 258 297 5,900 -439 Descending Chicago Center
Wed 07:44:50 PM 43.2481 -89.1372 343° North 257 296 5,100 -829 Descending Chicago Center
Wed 07:45:51 PM 43.3175 -89.1714 340° North 259 298 4,200 -738 Descending Chicago Center
Wed 07:46:52 PM 43.3864 -89.2108 337° Northwest 264 304 3,600 -541 Descending Chicago Center
Wed 07:47:53 PM 43.3981 -89.2844 282° West 252 290 3,100 -344 Descending Chicago Center
Wed 07:48:54 PM 43.3344 -89.3025 192° South 240 276 2,900 -98 Descending Chicago Center
Wed 07:49:56 PM 43.2781 -89.3342 202° Southwest 230 265 2,900 -195 Level Chicago Center
Wed 07:50:57 PM 43.2289 -89.3389 184° South 179 206 2,500 -541 Descending Chicago Center
Wed 07:51:58 PM 43.1911 -89.3397 181° South 149 171 1,800 -689 Descending Chicago Center
Wed 07:52:59 PM 43.1589 -89.3406 181° South 141 162 1,100 -689 Descending Chicago Center

Login

Don't have an account? Register now (free) for customized features, flight alerts, and more!